Wilmington, OH

10:25 PM EST on February 24, 2017 (GMT -0500)
2.2 N Wilmington | | Change Station

Elev 1053 ft 39.47 °N, 83.84 °W | Updated 6 minutes ago

Light Rain
Light Rain
58.1 °F
Feels Like 58.1 °F
N
5.0
Wind Variable Wind from SW
Gusts 6.0 mph

Today
High -- | Low -- °F
--% Chance of Precip.
Yesterday
High -- | Low -- °F
Precip. -- in
Pressure 29.54 in
Visibility 8.0 miles
Clouds Few 5000 ft
Overcast 8000 ft
Dew Point 56 °F
Humidity 92%
Rainfall 0.31 in
Snow Depth Not available.
7:14 AM 6:22 PM
Waning Crescent, 3% visible
METAR KILN 250254Z AUTO 21012KT 8SM VCTS -RA FEW050 OVC080 15/13 A2955 RMK AO2 PK WND 27033/0221 WSHFT 0224 LTG DSNT ALQDS TSB14E50 SLP003 P0015 60015 T01500133 55002
Pressure 29.54 in
Visibility 8.0 miles
Clouds Few 5000 ft
Overcast 8000 ft
Dew Point 56 °F
Humidity 92%
Rainfall 0.31 in
Snow Depth Not available.
7:14 AM 6:22 PM
Waning Crescent, 3% visible
METAR KILN 250254Z AUTO 21012KT 8SM VCTS -RA FEW050 OVC080 15/13 A2955 RMK AO2 PK WND 27033/0221 WSHFT 0224 LTG DSNT ALQDS TSB14E50 SLP003 P0015 60015 T01500133 55002

Get Your Daily Forecast Email!

Thanks for signing up!

Be on the lookout for a verification email in your inbox.

You'll start receiving the daily forecast at 8 AM.

×

10-Day Weather Forecast

Almanac

Astronomy

Feb. 24, 2017 Rise Set
Actual Time
Civil Twilight
Nautical Twilight
Astronomical Twilight
Moon
Length of Visible Light
Length of Day
Tomorrow will be .
, % of the Moon is Illuminated

Today's Extremes

State Highs State Lows

Community

WunderPhotos

Upload Photos

1,962,540 photos uploaded!

WunderBlog® & News

Nearby

Air Quality

  Air Quality AQ Index Pollutant
Not available.

Snow Depth

Station Depth Elevation

Earthquake Activity

City Distance Mag. Time & Date
Minimum magnitude displayed is 2.5.

Coastal Water Temperatures

Place Temperature

Stations

Nearby Weather Stations

Station Location Temp. Windchill Dew Point Humidity Wind Precip. Elev Updated Type
                   

Watches & Warnings

There are currently no watches in effect.